Time;durP1;ratioP1;P1;durP2;ratioP2;P2;SDS_P1;SDS_P2;PMS_P1;PMS_P2;Temp;Humidity;BMP_temperature;BMP_pressure;BME280_temperature;BME280_humidity;BME280_pressure;Samples;Min_cycle;Max_cycle;Signal;HPM_P1;HPM_P2
2021/07/11 00:00:47;;;;;;;0.35;0.28;;;;;;;;;;4975885;28;20053;-71
2021/07/11 00:03:13;;;;;;;0.20;0.20;;;;;;;;;;4979943;28;20026;-71
2021/07/11 00:05:38;;;;;;;0.30;0.30;;;;;;;;;;4987724;28;20165;-71
2021/07/11 00:08:04;;;;;;;0.28;0.28;;;;;;;;;;4984012;28;20065;-70
2021/07/11 00:10:29;;;;;;;0.28;0.28;;;;;;;;;;4978974;28;20033;-71
2021/07/11 00:12:55;;;;;;;0.30;0.30;;;;;;;;;;4985791;28;20661;-70
2021/07/11 00:15:23;;;;;;;0.20;0.20;;;;;;;;;;4984322;28;20069;-71
2021/07/11 00:17:51;;;;;;;0.20;0.20;;;;;;;;;;4977740;28;20062;-71
2021/07/11 00:20:17;;;;;;;0.20;0.20;;;;;;;;;;4976461;28;20041;-71
2021/07/11 00:22:43;;;;;;;0.20;0.20;;;;;;;;;;4974757;28;20037;-71
2021/07/11 00:25:13;;;;;;;0.20;0.20;;;;;;;;;;4984207;28;20081;-71
2021/07/11 00:27:39;;;;;;;0.20;0.20;;;;;;;;;;4977184;28;20451;-72
2021/07/11 00:30:04;;;;;;;0.30;0.30;;;;;;;;;;4972981;28;20035;-72
2021/07/11 00:32:30;;;;;;;0.20;0.20;;;;;;;;;;4978005;28;20133;-71
2021/07/11 00:34:55;;;;;;;0.20;0.20;;;;;;;;;;4965053;28;20033;-71
2021/07/11 00:37:21;;;;;;;0.40;0.40;;;;;;;;;;4972508;28;20133;-72
2021/07/11 00:39:46;;;;;;;0.30;0.30;;;;;;;;;;4974939;28;20034;-71
2021/07/11 00:42:15;;;;;;;0.20;0.20;;;;;;;;;;4971972;28;20031;-71
2021/07/11 00:44:41;;;;;;;0.20;0.20;;;;;;;;;;4956319;28;20023;-71
2021/07/11 00:47:07;;;;;;;0.20;0.20;;;;;;;;;;4985151;28;20492;-71
2021/07/11 00:49:35;;;;;;;0.20;0.20;;;;;;;;;;4964368;28;20138;-72
2021/07/11 00:52:05;;;;;;;0.20;0.20;;;;;;;;;;4966663;28;20050;-72
2021/07/11 00:54:31;;;;;;;0.20;0.20;;;;;;;;;;4978930;28;20018;-72
2021/07/11 00:56:56;;;;;;;0.20;0.20;;;;;;;;;;4972718;28;20412;-71
2021/07/11 00:59:22;;;;;;;0.20;0.20;;;;;;;;;;4980025;28;20314;-71
2021/07/11 01:01:56;;;;;;;0.30;0.30;;;;;;;;;;4977290;28;20446;-71
2021/07/11 01:04:37;;;;;;;0.20;0.20;;;;;;;;;;4987121;28;20556;-71
2021/07/11 01:07:04;;;;;;;0.20;0.20;;;;;;;;;;4978735;28;20113;-70
2021/07/11 01:09:38;;;;;;;0.20;0.20;;;;;;;;;;4987620;28;20030;-70
2021/07/11 01:12:05;;;;;;;0.22;0.22;;;;;;;;;;4981566;28;20109;-70
2021/07/11 01:14:40;;;;;;;0.20;0.20;;;;;;;;;;4981048;28;20113;-70
2021/07/11 01:17:06;;;;;;;0.35;0.35;;;;;;;;;;4978372;28;20477;-70
2021/07/11 01:19:35;;;;;;;0.20;0.20;;;;;;;;;;4978994;28;20043;-70
2021/07/11 01:22:04;;;;;;;0.30;0.30;;;;;;;;;;4976005;28;20023;-71
2021/07/11 01:24:40;;;;;;;0.20;0.20;;;;;;;;;;4981413;28;20027;-70
2021/07/11 01:27:06;;;;;;;0.20;0.20;;;;;;;;;;4971149;28;20018;-69
2021/07/11 01:29:32;;;;;;;0.30;0.30;;;;;;;;;;4979466;28;20435;-70
2021/07/11 01:31:58;;;;;;;0.43;0.40;;;;;;;;;;4988752;28;20417;-70
2021/07/11 01:34:24;;;;;;;0.30;0.30;;;;;;;;;;4972195;28;20129;-71
2021/07/11 01:36:51;;;;;;;0.25;0.25;;;;;;;;;;4969431;28;20422;-70
2021/07/11 01:39:18;;;;;;;0.30;0.30;;;;;;;;;;4980449;28;20084;-70
2021/07/11 01:41:45;;;;;;;0.20;0.20;;;;;;;;;;4980040;28;20093;-70
2021/07/11 01:44:11;;;;;;;0.30;0.30;;;;;;;;;;4962402;28;20022;-70
2021/07/11 01:46:41;;;;;;;0.20;0.20;;;;;;;;;;4988801;28;20036;-70
2021/07/11 01:49:09;;;;;;;0.20;0.20;;;;;;;;;;4979993;28;20033;-71
2021/07/11 01:51:36;;;;;;;0.30;0.30;;;;;;;;;;4986952;28;20062;-72
2021/07/11 01:54:05;;;;;;;0.20;0.20;;;;;;;;;;4979486;28;20100;-71
2021/07/11 01:56:34;;;;;;;0.20;0.20;;;;;;;;;;4985975;28;20077;-70
2021/07/11 01:59:01;;;;;;;0.20;0.20;;;;;;;;;;4972120;28;20584;-71
2021/07/11 02:01:33;;;;;;;0.30;0.30;;;;;;;;;;4988102;28;20038;-71
2021/07/11 02:04:08;;;;;;;0.30;0.30;;;;;;;;;;4986957;28;20058;-72
2021/07/11 02:06:35;;;;;;;0.22;0.22;;;;;;;;;;4981051;28;20031;-71
2021/07/11 02:09:11;;;;;;;0.20;0.20;;;;;;;;;;4971843;28;20031;-72
2021/07/11 02:11:38;;;;;;;0.30;0.30;;;;;;;;;;4976490;28;20401;-72
2021/07/11 02:14:07;;;;;;;0.20;0.20;;;;;;;;;;4983340;28;20189;-72
2021/07/11 02:16:37;;;;;;;0.30;0.30;;;;;;;;;;4979672;28;20544;-72
2021/07/11 02:19:06;;;;;;;0.38;0.38;;;;;;;;;;4969988;28;20351;-71
2021/07/11 02:21:34;;;;;;;0.38;0.38;;;;;;;;;;4987777;28;20027;-71
2021/07/11 02:24:00;;;;;;;;;;;;;;;;;;4988097;28;20505;-71
2021/07/11 02:26:26;;;;;;;0.30;0.30;;;;;;;;;;4975297;28;19917;-71
2021/07/11 02:28:52;;;;;;;0.30;0.30;;;;;;;;;;4988109;28;20034;-70
2021/07/11 02:31:18;;;;;;;0.25;0.25;;;;;;;;;;4978665;28;20041;-71
2021/07/11 02:33:44;;;;;;;0.28;0.28;;;;;;;;;;4986597;28;20523;-71
2021/07/11 02:36:10;;;;;;;0.25;0.25;;;;;;;;;;4976421;28;20043;-71
2021/07/11 02:38:39;;;;;;;0.35;0.35;;;;;;;;;;4976628;28;20054;-72
2021/07/11 02:41:05;;;;;;;0.20;0.20;;;;;;;;;;4989198;28;20030;-71
2021/07/11 02:43:31;;;;;;;0.30;0.30;;;;;;;;;;4978910;28;20122;-72
2021/07/11 02:45:58;;;;;;;0.30;0.30;;;;;;;;;;4989106;28;20030;-71
2021/07/11 02:48:25;;;;;;;0.20;0.20;;;;;;;;;;4974641;28;20027;-71
2021/07/11 02:50:52;;;;;;;0.30;0.30;;;;;;;;;;4974052;28;20042;-71
2021/07/11 02:53:19;;;;;;;0.33;0.33;;;;;;;;;;4988867;28;20038;-71
2021/07/11 02:55:47;;;;;;;0.30;0.30;;;;;;;;;;4983036;28;20053;-71
2021/07/11 02:58:16;;;;;;;0.30;0.30;;;;;;;;;;4980509;28;20101;-69
2021/07/11 03:00:44;;;;;;;0.20;0.20;;;;;;;;;;4975951;28;20093;-71
2021/07/11 03:03:11;;;;;;;0.40;0.40;;;;;;;;;;4979204;28;20030;-71
2021/07/11 03:05:49;;;;;;;0.25;0.25;;;;;;;;;;4977533;28;20774;-70
2021/07/11 03:08:15;;;;;;;0.25;0.25;;;;;;;;;;4977796;28;20485;-70
2021/07/11 03:10:41;;;;;;;0.30;0.30;;;;;;;;;;4985964;28;20029;-70
2021/07/11 03:13:09;;;;;;;0.30;0.30;;;;;;;;;;4986854;28;20407;-71
2021/07/11 03:15:41;;;;;;;0.20;0.20;;;;;;;;;;4987306;28;20053;-71
2021/07/11 03:18:08;;;;;;;0.20;0.20;;;;;;;;;;4972435;28;20031;-70
2021/07/11 03:20:35;;;;;;;0.30;0.30;;;;;;;;;;4984794;28;20034;-71
2021/07/11 03:23:01;;;;;;;0.20;0.20;;;;;;;;;;4978406;28;20053;-70
2021/07/11 03:25:27;;;;;;;0.35;0.35;;;;;;;;;;4971898;28;20496;-71
2021/07/11 03:27:54;;;;;;;0.30;0.30;;;;;;;;;;4972058;28;20073;-71
2021/07/11 03:30:22;;;;;;;0.20;0.20;;;;;;;;;;4983969;28;20023;-71
2021/07/11 03:32:59;;;;;;;0.20;0.20;;;;;;;;;;4993070;28;20030;-71
2021/07/11 03:35:32;;;;;;;0.20;0.20;;;;;;;;;;4989584;28;20145;-71
2021/07/11 03:38:00;;;;;;;0.28;0.28;;;;;;;;;;4976656;28;20031;-71
2021/07/11 03:40:29;;;;;;;0.20;0.20;;;;;;;;;;4987859;28;20065;-71
2021/07/11 03:42:59;;;;;;;0.30;0.30;;;;;;;;;;4972791;28;20031;-71
2021/07/11 03:45:25;;;;;;;0.30;0.30;;;;;;;;;;4977478;28;20038;-71
2021/07/11 03:47:54;;;;;;;0.20;0.20;;;;;;;;;;4981409;28;20689;-70
2021/07/11 03:50:23;;;;;;;0.20;0.20;;;;;;;;;;4971197;28;20054;-72
2021/07/11 03:52:54;;;;;;;0.38;0.38;;;;;;;;;;4977573;28;20080;-71
2021/07/11 03:55:20;;;;;;;0.20;0.20;;;;;;;;;;4974027;28;20034;-70
2021/07/11 03:57:48;;;;;;;0.30;0.30;;;;;;;;;;4986822;28;20038;-71
2021/07/11 04:00:15;;;;;;;0.30;0.30;;;;;;;;;;4974802;28;20038;-72
2021/07/11 04:02:41;;;;;;;0.20;0.20;;;;;;;;;;4979253;28;20121;-71
2021/07/11 04:05:07;;;;;;;0.38;0.30;;;;;;;;;;4977650;28;20109;-71
2021/07/11 04:07:33;;;;;;;0.20;0.20;;;;;;;;;;4976716;28;20126;-71
2021/07/11 04:09:59;;;;;;;0.20;0.20;;;;;;;;;;4974897;28;20010;-72
2021/07/11 04:12:25;;;;;;;0.38;0.38;;;;;;;;;;4979628;28;20112;-71
2021/07/11 04:14:50;;;;;;;0.30;0.30;;;;;;;;;;4986154;28;20046;-71
2021/07/11 04:17:17;;;;;;;0.30;0.30;;;;;;;;;;4983496;28;20109;-72
2021/07/11 04:19:43;;;;;;;0.22;0.22;;;;;;;;;;4980787;28;20045;-70
2021/07/11 04:22:10;;;;;;;0.30;0.30;;;;;;;;;;4983871;28;20125;-70
2021/07/11 04:24:39;;;;;;;0.30;0.30;;;;;;;;;;4979715;28;20934;-69
2021/07/11 04:27:05;;;;;;;0.30;0.30;;;;;;;;;;4984269;28;20089;-70
2021/07/11 04:29:33;;;;;;;0.30;0.30;;;;;;;;;;4983147;28;20026;-70
2021/07/11 04:31:59;;;;;;;0.28;0.28;;;;;;;;;;4978716;28;20026;-71
2021/07/11 04:34:33;;;;;;;0.20;0.20;;;;;;;;;;4978725;28;20481;-71
2021/07/11 04:36:59;;;;;;;0.30;0.30;;;;;;;;;;4980422;28;20089;-71
2021/07/11 04:39:27;;;;;;;0.30;0.30;;;;;;;;;;4973998;28;20037;-70
2021/07/11 04:41:53;;;;;;;0.20;0.20;;;;;;;;;;4976630;28;20034;-70
2021/07/11 04:44:18;;;;;;;0.30;0.30;;;;;;;;;;4978674;28;20029;-70
2021/07/11 04:46:44;;;;;;;0.20;0.20;;;;;;;;;;4977108;28;20022;-71
2021/07/11 04:49:09;;;;;;;0.20;0.20;;;;;;;;;;4980185;28;20499;-71
2021/07/11 04:51:35;;;;;;;0.30;0.30;;;;;;;;;;4983286;28;20027;-71
2021/07/11 04:54:02;;;;;;;0.20;0.20;;;;;;;;;;4979700;28;20527;-71
2021/07/11 04:56:28;;;;;;;0.20;0.20;;;;;;;;;;4987170;28;20030;-70
2021/07/11 04:58:56;;;;;;;0.20;0.20;;;;;;;;;;4984266;28;20109;-70
2021/07/11 05:01:25;;;;;;;0.20;0.20;;;;;;;;;;4980984;28;20027;-70
2021/07/11 05:03:51;;;;;;;0.30;0.30;;;;;;;;;;4976385;28;20042;-70
2021/07/11 05:06:16;;;;;;;0.30;0.30;;;;;;;;;;4982295;28;20030;-71
2021/07/11 05:08:41;;;;;;;0.30;0.30;;;;;;;;;;4977734;28;20659;-71
2021/07/11 05:11:07;;;;;;;0.30;0.30;;;;;;;;;;4980058;28;20029;-72
2021/07/11 05:13:32;;;;;;;0.20;0.20;;;;;;;;;;4979812;28;20117;-71
2021/07/11 05:15:58;;;;;;;0.20;0.20;;;;;;;;;;4959355;28;20058;-71
2021/07/11 05:18:24;;;;;;;0.20;0.20;;;;;;;;;;4977089;28;20041;-71
2021/07/11 05:20:49;;;;;;;0.20;0.20;;;;;;;;;;4985819;28;20034;-71
2021/07/11 05:23:17;;;;;;;0.30;0.30;;;;;;;;;;4972652;28;20068;-71
2021/07/11 05:25:42;;;;;;;0.20;0.20;;;;;;;;;;4973118;28;20030;-70
2021/07/11 05:28:07;;;;;;;0.20;0.20;;;;;;;;;;4983136;28;20026;-71
2021/07/11 05:30:33;;;;;;;0.20;0.20;;;;;;;;;;4979399;28;20045;-71
2021/07/11 05:32:58;;;;;;;0.20;0.20;;;;;;;;;;4976597;28;20634;-71
2021/07/11 05:35:24;;;;;;;0.20;0.20;;;;;;;;;;4975372;28;20066;-70
2021/07/11 05:37:49;;;;;;;0.40;0.40;;;;;;;;;;4995414;28;20035;-70
2021/07/11 05:40:17;;;;;;;0.20;0.20;;;;;;;;;;4979499;28;20457;-70
2021/07/11 05:42:42;;;;;;;0.20;0.20;;;;;;;;;;4977373;28;20043;-70
2021/07/11 05:45:08;;;;;;;0.30;0.30;;;;;;;;;;4978078;28;20085;-70
2021/07/11 05:47:34;;;;;;;0.30;0.30;;;;;;;;;;4977273;28;20035;-71
2021/07/11 05:49:59;;;;;;;0.30;0.30;;;;;;;;;;4982288;28;20645;-70
2021/07/11 05:52:25;;;;;;;0.28;0.28;;;;;;;;;;4986144;28;20644;-70
2021/07/11 05:54:50;;;;;;;0.32;0.32;;;;;;;;;;4984728;28;20034;-71
2021/07/11 05:57:15;;;;;;;0.20;0.20;;;;;;;;;;4980913;28;20042;-71
2021/07/11 05:59:41;;;;;;;0.28;0.28;;;;;;;;;;4980429;28;20047;-70
2021/07/11 06:02:07;;;;;;;0.25;0.25;;;;;;;;;;4985260;28;20050;-70
2021/07/11 06:04:32;;;;;;;0.20;0.20;;;;;;;;;;4987667;28;20493;-70
2021/07/11 06:06:57;;;;;;;0.20;0.20;;;;;;;;;;4989040;28;20654;-70
2021/07/11 06:09:22;;;;;;;0.20;0.20;;;;;;;;;;4975056;28;20027;-69
2021/07/11 06:11:48;;;;;;;0.28;0.28;;;;;;;;;;4994554;28;20097;-71
2021/07/11 06:14:15;;;;;;;0.30;0.30;;;;;;;;;;4979585;28;20142;-70
2021/07/11 06:16:40;;;;;;;0.20;0.20;;;;;;;;;;5002350;28;20089;-71
2021/07/11 06:19:06;;;;;;;0.30;0.30;;;;;;;;;;4978801;28;20452;-70
2021/07/11 06:21:31;;;;;;;0.28;0.28;;;;;;;;;;4983219;28;20030;-70
2021/07/11 06:23:56;;;;;;;0.20;0.20;;;;;;;;;;4984625;28;20038;-70
2021/07/11 06:26:22;;;;;;;0.20;0.20;;;;;;;;;;4982148;28;20110;-70
2021/07/11 06:28:47;;;;;;;0.30;0.30;;;;;;;;;;4980636;28;20592;-71
2021/07/11 06:31:12;;;;;;;0.20;0.20;;;;;;;;;;4970526;28;20105;-70
2021/07/11 06:33:40;;;;;;;0.22;0.22;;;;;;;;;;4985667;28;20464;-70
2021/07/11 06:36:05;;;;;;;0.20;0.20;;;;;;;;;;4978827;28;20102;-70
2021/07/11 06:38:31;;;;;;;0.32;0.32;;;;;;;;;;4983495;28;20121;-70
2021/07/11 06:40:56;;;;;;;0.20;0.20;;;;;;;;;;4979199;28;20492;-71
2021/07/11 06:43:22;;;;;;;0.20;0.20;;;;;;;;;;4977831;28;20423;-70
2021/07/11 06:45:47;;;;;;;0.22;0.22;;;;;;;;;;4982922;28;20026;-69
2021/07/11 06:48:12;;;;;;;0.20;0.20;;;;;;;;;;4978564;28;20072;-69
2021/07/11 06:50:42;;;;;;;0.30;0.30;;;;;;;;;;4979611;28;20029;-70
2021/07/11 06:53:07;;;;;;;0.20;0.20;;;;;;;;;;4988510;28;20045;-70
2021/07/11 06:55:33;;;;;;;0.30;0.30;;;;;;;;;;4979004;28;20371;-70
2021/07/11 06:57:58;;;;;;;0.20;0.20;;;;;;;;;;4982762;28;20038;-69
2021/07/11 07:00:23;;;;;;;0.20;0.20;;;;;;;;;;4980132;28;20031;-70
2021/07/11 07:02:49;;;;;;;0.20;0.20;;;;;;;;;;4981473;28;20038;-71
2021/07/11 07:05:14;;;;;;;0.20;0.20;;;;;;;;;;4983753;28;20034;-70
2021/07/11 07:07:39;;;;;;;0.20;0.20;;;;;;;;;;4979539;28;20492;-70
2021/07/11 07:10:09;;;;;;;0.30;0.30;;;;;;;;;;4978641;28;20404;-70
2021/07/11 07:12:36;;;;;;;0.25;0.25;;;;;;;;;;4979052;28;20031;-70
2021/07/11 07:15:01;;;;;;;0.30;0.30;;;;;;;;;;4981499;28;20050;-70
2021/07/11 07:17:28;;;;;;;0.20;0.20;;;;;;;;;;4984900;28;20124;-70
2021/07/11 07:19:53;;;;;;;0.30;0.30;;;;;;;;;;4980820;28;20804;-69
2021/07/11 07:22:18;;;;;;;0.22;0.22;;;;;;;;;;4978838;28;20041;-70
2021/07/11 07:24:44;;;;;;;0.40;0.40;;;;;;;;;;4968274;28;20034;-69
2021/07/11 07:27:09;;;;;;;0.25;0.25;;;;;;;;;;4980801;28;20026;-70
2021/07/11 07:29:34;;;;;;;0.30;0.30;;;;;;;;;;4979008;28;20563;-71
2021/07/11 07:32:00;;;;;;;0.20;0.20;;;;;;;;;;4979016;28;20378;-70
2021/07/11 07:34:25;;;;;;;0.30;0.30;;;;;;;;;;4986039;28;20531;-71
2021/07/11 07:36:50;;;;;;;0.25;0.25;;;;;;;;;;4971671;28;20137;-71
2021/07/11 07:39:16;;;;;;;0.28;0.28;;;;;;;;;;4978048;28;20026;-72
2021/07/11 07:41:41;;;;;;;0.20;0.20;;;;;;;;;;4988182;28;20121;-71
2021/07/11 07:44:07;;;;;;;0.32;0.30;;;;;;;;;;4978145;28;20037;-72
2021/07/11 07:46:32;;;;;;;0.30;0.30;;;;;;;;;;4976879;28;20046;-72
2021/07/11 07:48:58;;;;;;;0.25;0.25;;;;;;;;;;4980956;28;20404;-71
2021/07/11 07:51:23;;;;;;;0.30;0.30;;;;;;;;;;4984824;28;20081;-71
2021/07/11 07:53:49;;;;;;;0.25;0.25;;;;;;;;;;4980432;28;20377;-71
2021/07/11 07:56:14;;;;;;;0.30;0.30;;;;;;;;;;4986087;28;20090;-71
2021/07/11 07:58:39;;;;;;;0.20;0.20;;;;;;;;;;4979971;28;20030;-73
2021/07/11 08:01:05;;;;;;;0.20;0.20;;;;;;;;;;4977600;28;20129;-72
2021/07/11 08:03:33;;;;;;;0.20;0.20;;;;;;;;;;4984783;28;20050;-71
2021/07/11 08:05:58;;;;;;;0.20;0.20;;;;;;;;;;4977355;28;20112;-73
2021/07/11 08:08:24;;;;;;;0.30;0.30;;;;;;;;;;4978314;28;20640;-73
2021/07/11 08:10:49;;;;;;;0.52;0.30;;;;;;;;;;4974668;28;20098;-72
2021/07/11 08:13:14;;;;;;;0.30;0.30;;;;;;;;;;4971567;28;20165;-71
2021/07/11 08:15:40;;;;;;;0.20;0.20;;;;;;;;;;4977522;28;20389;-72
2021/07/11 08:18:06;;;;;;;0.28;0.28;;;;;;;;;;4985238;28;20030;-71
2021/07/11 08:20:31;;;;;;;0.30;0.30;;;;;;;;;;4973945;28;20046;-71
2021/07/11 08:22:58;;;;;;;0.25;0.25;;;;;;;;;;4973728;28;20113;-71
2021/07/11 08:25:23;;;;;;;0.20;0.20;;;;;;;;;;4974260;28;21055;-70
2021/07/11 08:27:49;;;;;;;0.20;0.20;;;;;;;;;;4978267;28;20058;-70
2021/07/11 08:30:15;;;;;;;0.30;0.30;;;;;;;;;;4989677;28;20034;-71
2021/07/11 08:32:40;;;;;;;0.40;0.40;;;;;;;;;;4973122;28;20477;-71
2021/07/11 08:35:06;;;;;;;0.30;0.30;;;;;;;;;;4973725;28;20030;-72
2021/07/11 08:37:32;;;;;;;0.30;0.30;;;;;;;;;;4978384;28;20093;-71
2021/07/11 08:40:00;;;;;;;0.20;0.20;;;;;;;;;;4984621;28;20047;-71
2021/07/11 08:42:26;;;;;;;0.20;0.20;;;;;;;;;;4981374;28;20038;-71
2021/07/11 08:44:52;;;;;;;0.20;0.20;;;;;;;;;;4983027;28;20574;-71
2021/07/11 08:47:17;;;;;;;0.25;0.25;;;;;;;;;;4982290;28;20113;-71
2021/07/11 08:49:43;;;;;;;0.20;0.20;;;;;;;;;;4964212;28;20069;-71
2021/07/11 08:52:08;;;;;;;0.20;0.20;;;;;;;;;;4992266;28;20460;-71
2021/07/11 08:54:34;;;;;;;0.30;0.30;;;;;;;;;;4985152;28;20527;-72
2021/07/11 08:57:00;;;;;;;0.20;0.20;;;;;;;;;;4971649;28;20452;-71
2021/07/11 08:59:27;;;;;;;0.20;0.20;;;;;;;;;;4994566;28;20042;-71
2021/07/11 09:01:52;;;;;;;0.22;0.22;;;;;;;;;;4982088;28;20038;-71
2021/07/11 09:04:18;;;;;;;0.20;0.20;;;;;;;;;;4979367;28;20408;-72
2021/07/11 09:06:49;;;;;;;0.30;0.30;;;;;;;;;;4976339;28;20149;-74
2021/07/11 09:09:21;;;;;;;0.30;0.30;;;;;;;;;;4977714;28;20035;-73
2021/07/11 09:11:51;;;;;;;0.20;0.20;;;;;;;;;;4962858;28;20455;-70
2021/07/11 09:14:21;;;;;;;0.20;0.20;;;;;;;;;;4986690;28;20062;-70
2021/07/11 09:16:47;;;;;;;0.20;0.20;;;;;;;;;;4988371;28;20054;-70
2021/07/11 09:19:25;;;;;;;0.10;0.10;;;;;;;;;;5004684;28;20037;-71
2021/07/11 09:21:55;;;;;;;0.20;0.20;;;;;;;;;;4978454;28;20038;-71
2021/07/11 09:24:21;;;;;;;0.20;0.20;;;;;;;;;;4978048;28;20096;-71
2021/07/11 09:26:50;;;;;;;0.10;0.10;;;;;;;;;;4987690;28;20044;-71
2021/07/11 09:29:23;;;;;;;0.20;0.20;;;;;;;;;;4980286;28;20086;-69
2021/07/11 09:31:50;;;;;;;0.10;0.10;;;;;;;;;;4980764;28;20038;-71
2021/07/11 09:34:22;;;;;;;0.20;0.20;;;;;;;;;;4979978;28;20054;-71
2021/07/11 09:36:48;;;;;;;0.10;0.10;;;;;;;;;;4983429;28;20474;-70
2021/07/11 09:39:14;;;;;;;0.20;0.20;;;;;;;;;;4988839;28;20089;-71
2021/07/11 09:41:39;;;;;;;0.20;0.20;;;;;;;;;;4976864;28;20034;-71
2021/07/11 09:44:04;;;;;;;0.28;0.25;;;;;;;;;;4985165;28;20030;-70
2021/07/11 09:46:33;;;;;;;0.20;0.20;;;;;;;;;;4981897;28;20026;-71
2021/07/11 09:48:59;;;;;;;0.20;0.20;;;;;;;;;;4976725;28;20508;-71
2021/07/11 09:51:26;;;;;;;0.13;0.13;;;;;;;;;;4977641;28;20092;-71
2021/07/11 09:53:53;;;;;;;0.10;0.10;;;;;;;;;;4983451;28;20026;-71
2021/07/11 09:56:48;;;;;;;0.20;0.20;;;;;;;;;;4984756;28;20038;-71
2021/07/11 09:59:15;;;;;;;0.10;0.10;;;;;;;;;;4965039;28;20042;-72
2021/07/11 10:01:41;;;;;;;0.10;0.10;;;;;;;;;;4981767;28;20034;-68
2021/07/11 10:04:07;;;;;;;0.13;0.13;;;;;;;;;;4984035;28;20457;-71
2021/07/11 10:06:36;;;;;;;0.10;0.10;;;;;;;;;;4988059;28;20058;-69
2021/07/11 10:09:03;;;;;;;0.20;0.20;;;;;;;;;;4980911;28;20026;-71
2021/07/11 10:11:28;;;;;;;;;;;;;;;;;;4982412;28;20031;-71
2021/07/11 10:13:54;;;;;;;0.10;0.10;;;;;;;;;;4976890;28;19913;-70
2021/07/11 10:16:23;;;;;;;0.10;0.10;;;;;;;;;;4982039;28;20080;-71
2021/07/11 10:18:50;;;;;;;0.20;0.20;;;;;;;;;;4979384;28;20110;-73
2021/07/11 10:21:18;;;;;;;0.20;0.20;;;;;;;;;;4985792;28;20042;-72
2021/07/11 10:23:43;;;;;;;0.10;0.10;;;;;;;;;;4978349;28;20038;-73
2021/07/11 10:26:13;;;;;;;0.20;0.20;;;;;;;;;;4977621;28;20027;-71
2021/07/11 10:28:42;;;;;;;0.10;0.10;;;;;;;;;;4981805;28;20034;-70
2021/07/11 10:31:24;;;;;;;0.10;0.10;;;;;;;;;;4980527;28;20034;-70
2021/07/11 10:33:50;;;;;;;0.10;0.10;;;;;;;;;;4978963;28;20035;-71
2021/07/11 10:36:16;;;;;;;0.10;0.10;;;;;;;;;;4980025;28;20035;-71
2021/07/11 10:38:50;;;;;;;0.10;0.10;;;;;;;;;;4980901;28;20471;-71
2021/07/11 10:41:18;;;;;;;0.10;0.10;;;;;;;;;;4983892;28;20034;-71
2021/07/11 10:43:46;;;;;;;0.10;0.10;;;;;;;;;;4978695;28;20535;-71
2021/07/11 10:46:12;;;;;;;0.10;0.10;;;;;;;;;;4979888;28;20042;-73
2021/07/11 10:48:37;;;;;;;0.20;0.20;;;;;;;;;;4971010;28;20038;-72
2021/07/11 10:51:03;;;;;;;0.13;0.13;;;;;;;;;;4976055;28;20077;-73
2021/07/11 10:53:33;;;;;;;0.10;0.10;;;;;;;;;;4976822;28;20035;-73
2021/07/11 10:55:58;;;;;;;0.10;0.10;;;;;;;;;;4979853;28;20073;-73
2021/07/11 10:58:24;;;;;;;0.80;0.20;;;;;;;;;;4981582;28;20058;-73
2021/07/11 11:00:49;;;;;;;0.25;0.20;;;;;;;;;;4986381;28;20092;-73
2021/07/11 11:03:16;;;;;;;0.20;0.20;;;;;;;;;;4977918;28;20022;-73
2021/07/11 11:05:48;;;;;;;0.10;0.10;;;;;;;;;;4987697;28;20034;-73
2021/07/11 11:08:19;;;;;;;0.15;0.15;;;;;;;;;;4985178;28;20035;-73
2021/07/11 11:10:45;;;;;;;0.20;0.20;;;;;;;;;;4980050;28;20039;-74
2021/07/11 11:13:17;;;;;;;0.10;0.10;;;;;;;;;;4986953;28;20026;-73
2021/07/11 11:15:44;;;;;;;0.10;0.10;;;;;;;;;;4977336;28;20075;-73
2021/07/11 11:18:28;;;;;;;0.40;0.20;;;;;;;;;;4978067;28;20038;-73
2021/07/11 11:21:07;;;;;;;0.10;0.10;;;;;;;;;;4982699;28;20030;-73
2021/07/11 11:23:32;;;;;;;0.22;0.15;;;;;;;;;;4980461;28;20042;-73
2021/07/11 11:25:57;;;;;;;0.20;0.20;;;;;;;;;;4983936;28;20039;-73
2021/07/11 11:28:27;;;;;;;0.20;0.20;;;;;;;;;;4986638;28;20111;-75
2021/07/11 11:30:52;;;;;;;0.10;0.10;;;;;;;;;;4980130;28;20488;-73
2021/07/11 11:33:20;;;;;;;0.10;0.10;;;;;;;;;;4980259;28;20037;-74
2021/07/11 11:35:46;;;;;;;0.10;0.10;;;;;;;;;;4980983;28;20573;-73
2021/07/11 11:38:13;;;;;;;0.20;0.20;;;;;;;;;;4981546;28;20096;-74
2021/07/11 11:40:39;;;;;;;0.10;0.10;;;;;;;;;;4977197;28;20662;-73
2021/07/11 11:43:05;;;;;;;0.10;0.10;;;;;;;;;;4980774;28;20031;-74
2021/07/11 11:45:32;;;;;;;0.00;0.00;;;;;;;;;;4982068;28;20435;-74
2021/07/11 11:48:04;;;;;;;0.17;0.17;;;;;;;;;;4981451;28;20027;-73
2021/07/11 11:50:30;;;;;;;0.00;0.00;;;;;;;;;;4964346;28;20349;-74
2021/07/11 11:53:12;;;;;;;0.10;0.10;;;;;;;;;;4979456;28;20570;-74
2021/07/11 11:55:39;;;;;;;0.10;0.10;;;;;;;;;;4978087;28;20062;-74
2021/07/11 11:58:04;;;;;;;;;;;;;;;;;;4982942;28;20323;-74
2021/07/11 12:00:29;;;;;;;0.10;0.10;;;;;;;;;;4967812;28;19925;-74
2021/07/11 12:03:02;;;;;;;0.20;0.20;;;;;;;;;;4977698;28;20041;-72
2021/07/11 12:05:29;;;;;;;0.00;0.00;;;;;;;;;;4979543;28;20039;-73
2021/07/11 12:07:58;;;;;;;0.28;0.10;;;;;;;;;;4976786;28;20039;-73
2021/07/11 12:10:24;;;;;;;0.00;0.00;;;;;;;;;;4980391;28;20038;-72
2021/07/11 12:12:53;;;;;;;0.10;0.10;;;;;;;;;;4982989;28;20034;-72
2021/07/11 12:15:27;;;;;;;0.00;0.00;;;;;;;;;;4977271;28;20038;-72
2021/07/11 12:17:58;;;;;;;0.10;0.10;;;;;;;;;;4977693;28;20077;-72
2021/07/11 12:20:23;;;;;;;0.00;0.00;;;;;;;;;;4983327;28;20089;-73
2021/07/11 12:22:48;;;;;;;0.10;0.10;;;;;;;;;;4977881;28;20515;-72
2021/07/11 12:25:24;;;;;;;0.10;0.10;;;;;;;;;;4962968;28;20437;-72
2021/07/11 12:27:59;;;;;;;0.00;0.00;;;;;;;;;;4978325;28;20038;-72
2021/07/11 12:30:25;;;;;;;0.08;0.08;;;;;;;;;;4979368;28;20030;-72
2021/07/11 12:32:53;;;;;;;0.00;0.00;;;;;;;;;;4965567;28;20034;-72
2021/07/11 12:35:22;;;;;;;0.10;0.10;;;;;;;;;;4979021;28;20142;-72
2021/07/11 12:37:58;;;;;;;0.10;0.10;;;;;;;;;;4978253;28;20026;-71
2021/07/11 12:40:25;;;;;;;0.10;0.10;;;;;;;;;;4977132;28;20481;-72
2021/07/11 12:43:20;;;;;;;0.20;0.10;;;;;;;;;;4977024;28;20302;-72
2021/07/11 12:45:59;;;;;;;0.10;0.10;;;;;;;;;;4963783;28;20049;-72
2021/07/11 12:48:41;;;;;;;0.10;0.10;;;;;;;;;;4977190;28;20074;-72
2021/07/11 12:51:20;;;;;;;0.15;0.15;;;;;;;;;;4979456;28;20031;-72
2021/07/11 12:53:50;;;;;;;0.15;0.10;;;;;;;;;;4961711;28;20133;-72
2021/07/11 12:56:19;;;;;;;0.10;0.10;;;;;;;;;;4970423;28;20084;-71
2021/07/11 12:58:45;;;;;;;0.00;0.00;;;;;;;;;;4978792;28;20034;-71
2021/07/11 13:01:12;;;;;;;0.00;0.00;;;;;;;;;;4985539;28;20457;-72
2021/07/11 13:03:38;;;;;;;;;;;;;;;;;;4981481;28;20062;-72
2021/07/11 13:06:03;;;;;;;0.10;0.10;;;;;;;;;;4977989;28;19960;-72
2021/07/11 13:08:31;;;;;;;0.10;0.10;;;;;;;;;;4979083;28;20505;-75
2021/07/11 13:10:56;;;;;;;0.13;0.13;;;;;;;;;;4983394;28;20392;-72
2021/07/11 13:13:22;;;;;;;0.20;0.20;;;;;;;;;;4987242;28;20046;-72
2021/07/11 13:15:48;;;;;;;0.00;0.00;;;;;;;;;;4981053;28;20057;-72
2021/07/11 13:18:14;;;;;;;0.20;0.20;;;;;;;;;;4979518;28;20378;-73
2021/07/11 13:20:40;;;;;;;0.10;0.10;;;;;;;;;;4987466;28;20035;-73
2021/07/11 13:23:06;;;;;;;;;;;;;;;;;;4963388;28;20379;-72
2021/07/11 13:25:31;;;;;;;0.10;0.10;;;;;;;;;;4984012;28;20008;-71
2021/07/11 13:27:57;;;;;;;0.10;0.10;;;;;;;;;;4980375;28;20473;-73
2021/07/11 13:30:25;;;;;;;0.10;0.10;;;;;;;;;;4980326;28;20122;-72
2021/07/11 13:32:51;;;;;;;0.10;0.10;;;;;;;;;;4969446;28;20489;-72
2021/07/11 13:35:19;;;;;;;0.20;0.20;;;;;;;;;;4980219;28;20392;-72
2021/07/11 13:37:44;;;;;;;0.20;0.20;;;;;;;;;;4982983;28;20026;-72
2021/07/11 13:40:10;;;;;;;0.10;0.10;;;;;;;;;;4981243;28;20038;-72
2021/07/11 13:42:36;;;;;;;0.20;0.20;;;;;;;;;;4977093;28;20284;-72
2021/07/11 13:45:03;;;;;;;0.10;0.10;;;;;;;;;;4984097;28;20030;-72
2021/07/11 13:47:33;;;;;;;0.00;0.00;;;;;;;;;;4982822;28;20385;-72
2021/07/11 13:49:58;;;;;;;0.00;0.00;;;;;;;;;;4988483;28;20132;-72
2021/07/11 13:52:24;;;;;;;0.00;0.00;;;;;;;;;;4988765;28;20129;-72
2021/07/11 13:54:49;;;;;;;0.00;0.00;;;;;;;;;;4985884;28;20468;-72
2021/07/11 13:57:17;;;;;;;0.00;0.00;;;;;;;;;;4982189;28;20030;-72
2021/07/11 13:59:42;;;;;;;0.10;0.00;;;;;;;;;;4987206;28;20076;-72
2021/07/11 14:02:07;;;;;;;0.00;0.00;;;;;;;;;;4987135;28;20027;-73
2021/07/11 14:04:33;;;;;;;0.00;0.00;;;;;;;;;;4991481;28;20035;-72
2021/07/11 14:06:58;;;;;;;0.00;0.00;;;;;;;;;;4986882;28;20117;-73
2021/07/11 14:09:24;;;;;;;0.00;0.00;;;;;;;;;;4984227;28;20038;-73
2021/07/11 14:11:49;;;;;;;0.10;0.10;;;;;;;;;;4979360;28;20018;-73
2021/07/11 14:14:14;;;;;;;0.00;0.00;;;;;;;;;;4987008;28;20030;-73
2021/07/11 14:16:40;;;;;;;0.00;0.00;;;;;;;;;;4982402;28;20031;-73
2021/07/11 14:19:05;;;;;;;0.03;0.03;;;;;;;;;;4981419;28;20023;-73
2021/07/11 14:21:30;;;;;;;0.00;0.00;;;;;;;;;;4979702;28;20038;-73
2021/07/11 14:23:56;;;;;;;0.10;0.10;;;;;;;;;;4978509;28;20060;-73
2021/07/11 14:26:21;;;;;;;0.10;0.10;;;;;;;;;;4979856;28;20030;-73
2021/07/11 14:28:47;;;;;;;0.00;0.00;;;;;;;;;;4981393;28;20101;-74
2021/07/11 14:31:12;;;;;;;0.20;0.10;;;;;;;;;;4976171;28;20508;-74
2021/07/11 14:33:37;;;;;;;0.10;0.10;;;;;;;;;;4982045;28;20038;-74
2021/07/11 14:36:03;;;;;;;0.10;0.10;;;;;;;;;;4974016;28;20028;-74
2021/07/11 14:38:29;;;;;;;0.20;0.20;;;;;;;;;;4980158;28;20038;-74
2021/07/11 14:40:55;;;;;;;0.10;0.10;;;;;;;;;;4981613;28;20053;-74
2021/07/11 14:43:20;;;;;;;0.10;0.10;;;;;;;;;;4985823;28;20771;-74
2021/07/11 14:45:45;;;;;;;0.10;0.10;;;;;;;;;;4989203;28;20049;-74